Time,TemperatureF,DewpointF,PressureIn,WindDirection,WindDirectionDegrees,WindSpeedMPH,WindSpeedGustMPH,Humidity,HourlyPrecipIn,Conditions,Clouds,dailyrainin,SoftwareType,DateUTC
2013-07-15 00:02:00,64.6,47.5,24.27,South,180,27.0,34.0,54,0.00,,,0.00,meteohub,2013-07-15 06:02:00,
2013-07-15 00:07:00,64.6,47.5,24.27,South,180,27.0,34.0,54,0.00,,,0.00,meteohub,2013-07-15 06:07:00,
2013-07-15 00:12:00,63.5,47.5,24.26,South,180,26.0,29.0,56,0.00,,,0.00,meteohub,2013-07-15 06:12:00,
2013-07-15 00:17:00,63.5,47.5,24.27,South,180,30.0,30.0,56,0.00,,,0.00,meteohub,2013-07-15 06:17:00,
2013-07-15 00:22:00,63.7,47.3,24.27,SE,135,28.0,30.0,55,0.00,,,0.00,meteohub,2013-07-15 06:22:00,
2013-07-15 00:27:00,63.5,47.1,24.27,SE,135,23.0,33.0,55,0.00,,,0.00,meteohub,2013-07-15 06:27:00,
2013-07-15 00:32:00,62.4,47.5,24.27,South,180,22.0,33.0,58,0.00,,,0.00,meteohub,2013-07-15 06:32:00,
2013-07-15 00:37:00,61.7,47.7,24.27,South,180,23.0,33.0,60,0.00,,,0.00,meteohub,2013-07-15 06:37:00,
2013-07-15 00:42:00,61.7,47.3,24.27,SSE,158,24.0,27.0,59,0.00,,,0.00,meteohub,2013-07-15 06:42:00,
2013-07-15 00:47:00,61.5,47.1,24.27,South,180,21.0,25.0,59,0.00,,,0.00,meteohub,2013-07-15 06:47:00,
2013-07-15 00:52:00,61.5,47.5,24.27,South,180,21.0,25.0,60,0.00,,,0.00,meteohub,2013-07-15 06:52:00,
2013-07-15 00:57:00,61.5,47.5,24.27,South,180,18.0,25.0,60,0.00,,,0.00,meteohub,2013-07-15 06:57:00,
2013-07-15 01:02:00,61.5,47.5,24.28,SSE,158,17.0,22.0,60,0.00,,,0.00,meteohub,2013-07-15 07:02:00,
2013-07-15 01:07:00,61.5,47.5,24.28,SSE,158,17.0,21.0,60,0.00,,,0.00,meteohub,2013-07-15 07:07:00,
2013-07-15 01:12:00,61.5,47.5,24.27,South,180,18.0,21.0,60,0.00,,,0.00,meteohub,2013-07-15 07:12:00,
2013-07-15 01:17:00,61.5,48.0,24.28,SE,135,18.0,22.0,61,0.00,,,0.00,meteohub,2013-07-15 07:17:00,
2013-07-15 01:22:00,61.3,48.2,24.28,South,180,17.0,22.0,62,0.00,,,0.00,meteohub,2013-07-15 07:22:00,
2013-07-15 01:27:00,61.2,48.0,24.28,South,180,19.0,22.0,62,0.00,,,0.00,meteohub,2013-07-15 07:27:00,
2013-07-15 01:32:00,61.7,48.2,24.27,South,180,21.0,21.0,61,0.00,,,0.00,meteohub,2013-07-15 07:32:00,
2013-07-15 01:37:00,61.5,48.0,24.28,SE,135,17.0,21.0,61,0.00,,,0.00,meteohub,2013-07-15 07:37:00,
2013-07-15 01:42:00,61.5,48.4,24.28,South,180,21.0,21.0,62,0.00,,,0.00,meteohub,2013-07-15 07:42:00,
2013-07-15 01:47:00,61.7,48.6,24.28,SSE,158,21.0,24.0,62,0.00,,,0.00,meteohub,2013-07-15 07:47:00,
2013-07-15 01:52:00,61.7,48.2,24.27,South,180,21.0,24.0,61,0.00,,,0.00,meteohub,2013-07-15 07:52:00,
2013-07-15 01:57:00,61.5,48.4,24.27,South,180,23.0,24.0,62,0.00,,,0.00,meteohub,2013-07-15 07:57:00,
2013-07-15 02:02:00,61.5,48.7,24.27,South,180,24.0,27.0,63,0.00,,,0.00,meteohub,2013-07-15 08:02:00,
2013-07-15 02:07:00,61.5,48.7,24.27,South,180,24.0,27.0,63,0.00,,,0.00,meteohub,2013-07-15 08:07:00,
2013-07-15 02:12:00,60.8,48.6,24.27,SE,135,23.0,26.0,64,0.00,,,0.00,meteohub,2013-07-15 08:12:00,
2013-07-15 02:17:00,61.0,48.7,24.27,South,180,19.0,24.0,64,0.00,,,0.00,meteohub,2013-07-15 08:17:00,
2013-07-15 02:22:00,60.4,48.6,24.27,South,180,15.0,24.0,65,0.00,,,0.00,meteohub,2013-07-15 08:22:00,
2013-07-15 02:27:00,60.1,48.7,24.27,South,180,17.0,23.0,66,0.00,,,0.00,meteohub,2013-07-15 08:27:00,
2013-07-15 02:32:00,60.3,48.9,24.27,South,180,15.0,23.0,66,0.00,,,0.00,meteohub,2013-07-15 08:32:00,
2013-07-15 02:37:00,59.7,48.7,24.27,South,180,19.0,19.0,67,0.00,,,0.00,meteohub,2013-07-15 08:37:00,
2013-07-15 02:42:00,60.3,48.9,24.27,South,180,13.0,19.0,66,0.00,,,0.00,meteohub,2013-07-15 08:42:00,
2013-07-15 02:52:00,59.9,48.6,24.26,South,180,17.0,19.0,66,0.00,,,0.00,meteohub,2013-07-15 08:52:00,
2013-07-15 02:57:00,60.3,48.9,24.27,South,180,16.0,18.0,66,0.00,,,0.00,meteohub,2013-07-15 08:57:00,
2013-07-15 03:02:00,60.1,48.7,24.26,South,180,15.0,20.0,66,0.00,,,0.00,meteohub,2013-07-15 09:02:00,
2013-07-15 03:07:00,60.1,48.7,24.27,South,180,15.0,20.0,66,0.00,,,0.00,meteohub,2013-07-15 09:07:00,
2013-07-15 03:12:00,60.1,48.7,24.27,South,180,19.0,21.0,66,0.00,,,0.00,meteohub,2013-07-15 09:12:00,
2013-07-15 03:17:00,60.3,48.9,24.26,South,180,18.0,21.0,66,0.00,,,0.00,meteohub,2013-07-15 09:17:00,
2013-07-15 03:22:00,60.4,49.1,24.26,South,180,15.0,21.0,66,0.00,,,0.00,meteohub,2013-07-15 09:22:00,
2013-07-15 03:27:00,60.4,49.1,24.26,South,180,15.0,20.0,66,0.00,,,0.00,meteohub,2013-07-15 09:27:00,
2013-07-15 03:32:00,59.7,49.1,24.26,South,180,11.0,20.0,68,0.00,,,0.00,meteohub,2013-07-15 09:32:00,
2013-07-15 03:37:00,59.7,49.1,24.26,South,180,14.0,18.0,68,0.00,,,0.00,meteohub,2013-07-15 09:37:00,
2013-07-15 03:42:00,59.7,49.1,24.26,South,180,15.0,16.0,68,0.00,,,0.00,meteohub,2013-07-15 09:42:00,
2013-07-15 03:47:00,60.1,48.7,24.26,South,180,14.0,15.0,66,0.00,,,0.00,meteohub,2013-07-15 09:47:00,
2013-07-15 03:52:00,59.9,48.9,24.26,SE,135,11.0,16.0,67,0.00,,,0.00,meteohub,2013-07-15 09:52:00,
2013-07-15 03:57:00,59.5,48.9,24.26,South,180,12.0,16.0,68,0.00,,,0.00,meteohub,2013-07-15 09:57:00,
2013-07-15 04:02:00,59.5,48.9,24.26,South,180,13.0,15.0,68,0.00,,,0.00,meteohub,2013-07-15 10:02:00,
2013-07-15 04:07:00,59.5,48.9,24.26,South,180,13.0,15.0,68,0.00,,,0.00,meteohub,2013-07-15 10:07:00,
2013-07-15 04:12:00,59.4,48.7,24.25,South,180,13.0,14.0,68,0.00,,,0.00,meteohub,2013-07-15 10:12:00,
2013-07-15 04:17:00,59.2,48.6,24.26,South,180,12.0,13.0,68,0.00,,,0.00,meteohub,2013-07-15 10:17:00,
2013-07-15 04:22:00,59.2,49.1,24.26,South,180,14.0,15.0,69,0.00,,,0.00,meteohub,2013-07-15 10:22:00,
2013-07-15 04:27:00,59.4,48.7,24.26,South,180,14.0,15.0,68,0.00,,,0.00,meteohub,2013-07-15 10:27:00,
2013-07-15 04:32:00,59.4,48.7,24.26,South,180,16.0,16.0,68,0.00,,,0.00,meteohub,2013-07-15 10:32:00,
2013-07-15 04:37:00,59.2,49.1,24.26,South,180,16.0,16.0,69,0.00,,,0.00,meteohub,2013-07-15 10:37:00,
2013-07-15 04:42:00,59.0,48.9,24.26,South,180,15.0,16.0,69,0.00,,,0.00,meteohub,2013-07-15 10:42:00,
2013-07-15 04:47:00,59.0,48.9,24.26,South,180,18.0,18.0,69,0.00,,,0.00,meteohub,2013-07-15 10:47:00,
2013-07-15 04:52:00,58.8,49.1,24.26,South,180,15.0,18.0,70,0.00,,,0.00,meteohub,2013-07-15 10:52:00,
2013-07-15 04:57:00,58.8,49.1,24.25,South,180,16.0,18.0,70,0.00,,,0.00,meteohub,2013-07-15 10:57:00,
2013-07-15 05:02:00,58.6,48.9,24.25,South,180,16.0,18.0,70,0.00,,,0.00,meteohub,2013-07-15 11:02:00,
2013-07-15 05:07:00,58.6,48.9,24.25,South,180,16.0,16.0,70,0.00,,,0.00,meteohub,2013-07-15 11:07:00,
2013-07-15 05:12:00,58.3,48.9,24.25,South,180,17.0,17.0,71,0.00,,,0.00,meteohub,2013-07-15 11:12:00,
2013-07-15 05:17:00,58.1,49.1,24.25,South,180,14.0,17.0,72,0.00,,,0.00,meteohub,2013-07-15 11:17:00,
2013-07-15 05:22:00,58.3,48.9,24.25,South,180,17.0,17.0,71,0.00,,,0.00,meteohub,2013-07-15 11:22:00,
2013-07-15 05:27:00,58.1,49.1,24.25,South,180,17.0,17.0,72,0.00,,,0.00,meteohub,2013-07-15 11:27:00,
2013-07-15 05:32:00,58.5,49.1,24.25,South,180,18.0,18.0,71,0.00,,,0.00,meteohub,2013-07-15 11:32:00,
2013-07-15 05:37:00,58.5,49.1,24.25,South,180,15.0,18.0,71,0.00,,,0.00,meteohub,2013-07-15 11:37:00,
2013-07-15 05:42:00,58.6,49.3,24.25,South,180,15.0,18.0,71,0.00,,,0.00,meteohub,2013-07-15 11:42:00,
2013-07-15 05:47:00,58.1,49.1,24.25,South,180,16.0,18.0,72,0.00,,,0.00,meteohub,2013-07-15 11:47:00,
2013-07-15 05:52:00,58.1,49.1,24.25,South,180,15.0,17.0,72,0.00,,,0.00,meteohub,2013-07-15 11:52:00,
2013-07-15 05:57:00,58.3,48.9,24.25,South,180,16.0,17.0,71,0.00,,,0.00,meteohub,2013-07-15 11:57:00,
2013-07-15 06:02:00,58.1,49.1,24.25,South,180,15.0,17.0,72,0.00,,,0.00,meteohub,2013-07-15 12:02:00,
2013-07-15 06:07:00,58.1,49.1,24.25,South,180,15.0,17.0,72,0.00,,,0.00,meteohub,2013-07-15 12:07:00,
2013-07-15 06:12:00,58.8,49.1,24.25,South,180,15.0,17.0,70,0.00,,,0.00,meteohub,2013-07-15 12:12:00,
2013-07-15 06:17:00,59.2,49.1,24.25,South,180,17.0,17.0,69,0.00,,,0.00,meteohub,2013-07-15 12:17:00,
2013-07-15 06:22:00,59.2,49.1,24.25,South,180,16.0,17.0,69,0.00,,,0.00,meteohub,2013-07-15 12:22:00,
2013-07-15 06:27:00,59.4,49.1,24.25,South,180,17.0,17.0,69,0.00,,,0.00,meteohub,2013-07-15 12:27:00,
2013-07-15 06:32:00,59.5,49.3,24.25,South,180,16.0,18.0,69,0.00,,,0.00,meteohub,2013-07-15 12:32:00,
2013-07-15 06:37:00,59.7,49.5,24.25,South,180,17.0,18.0,69,0.00,,,0.00,meteohub,2013-07-15 12:37:00,
2013-07-15 06:42:00,59.7,49.5,24.25,South,180,16.0,18.0,69,0.00,,,0.00,meteohub,2013-07-15 12:42:00,
2013-07-15 06:47:00,59.9,49.6,24.25,South,180,16.0,17.0,69,0.00,,,0.00,meteohub,2013-07-15 12:47:00,
2013-07-15 06:52:00,60.1,49.5,24.25,South,180,17.0,17.0,68,0.00,,,0.00,meteohub,2013-07-15 12:52:00,
2013-07-15 06:57:00,60.3,49.6,24.25,South,180,19.0,19.0,68,0.00,,,0.00,meteohub,2013-07-15 12:57:00,
2013-07-15 07:02:00,60.3,49.6,24.25,South,180,18.0,20.0,68,0.00,,,0.00,meteohub,2013-07-15 13:02:00,
2013-07-15 07:07:00,60.3,49.6,24.25,South,180,18.0,20.0,68,0.00,,,0.00,meteohub,2013-07-15 13:07:00,
2013-07-15 07:12:00,60.6,50.0,24.25,South,180,20.0,21.0,68,0.00,,,0.00,meteohub,2013-07-15 13:12:00,
2013-07-15 07:17:00,60.6,49.6,24.25,South,180,19.0,21.0,67,0.00,,,0.00,meteohub,2013-07-15 13:17:00,
2013-07-15 07:22:00,61.0,50.0,24.25,South,180,19.0,21.0,67,0.00,,,0.00,meteohub,2013-07-15 13:22:00,
2013-07-15 07:27:00,61.3,50.4,24.25,South,180,19.0,21.0,67,0.00,,,0.00,meteohub,2013-07-15 13:27:00,
2013-07-15 07:32:00,61.7,50.2,24.25,South,180,18.0,21.0,66,0.00,,,0.00,meteohub,2013-07-15 13:32:00,
2013-07-15 07:37:00,61.7,50.2,24.25,South,180,16.0,20.0,66,0.00,,,0.00,meteohub,2013-07-15 13:37:00,
2013-07-15 07:42:00,62.1,49.8,24.25,South,180,21.0,21.0,64,0.00,,,0.00,meteohub,2013-07-15 13:42:00,
2013-07-15 07:47:00,62.4,50.5,24.25,South,180,19.0,21.0,65,0.00,,,0.00,meteohub,2013-07-15 13:47:00,
2013-07-15 07:52:00,62.8,50.0,24.25,South,180,19.0,21.0,63,0.00,,,0.00,meteohub,2013-07-15 13:52:00,
2013-07-15 07:57:00,63.0,50.2,24.25,South,180,19.0,21.0,63,0.00,,,0.00,meteohub,2013-07-15 13:57:00,
2013-07-15 08:02:00,63.0,50.2,24.25,South,180,17.0,21.0,63,0.00,,,0.00,meteohub,2013-07-15 14:02:00,
2013-07-15 08:07:00,63.0,50.2,24.25,South,180,17.0,19.0,63,0.00,,,0.00,meteohub,2013-07-15 14:07:00,
2013-07-15 08:12:00,63.3,50.5,24.25,South,180,21.0,21.0,63,0.00,,,0.00,meteohub,2013-07-15 14:12:00,
2013-07-15 08:17:00,63.9,50.5,24.25,South,180,16.0,21.0,62,0.00,,,0.00,meteohub,2013-07-15 14:17:00,
2013-07-15 08:22:00,63.9,50.2,24.25,South,180,18.0,21.0,61,0.00,,,0.00,meteohub,2013-07-15 14:22:00,
2013-07-15 08:27:00,64.2,50.9,24.25,South,180,19.0,21.0,62,0.00,,,0.00,meteohub,2013-07-15 14:27:00,
2013-07-15 08:32:00,64.4,50.2,24.25,South,180,19.0,21.0,60,0.00,,,0.00,meteohub,2013-07-15 14:32:00,
2013-07-15 08:37:00,64.9,50.2,24.25,South,180,18.0,21.0,59,0.00,,,0.00,meteohub,2013-07-15 14:37:00,
2013-07-15 08:42:00,64.9,50.7,24.25,South,180,19.0,21.0,60,0.00,,,0.00,meteohub,2013-07-15 14:42:00,
2013-07-15 08:47:00,65.3,50.2,24.25,South,180,18.0,21.0,58,0.00,,,0.00,meteohub,2013-07-15 14:47:00,
2013-07-15 08:52:00,65.5,50.4,24.25,South,180,19.0,20.0,58,0.00,,,0.00,meteohub,2013-07-15 14:52:00,
2013-07-15 08:57:00,65.7,50.5,24.25,South,180,18.0,20.0,58,0.00,,,0.00,meteohub,2013-07-15 14:57:00,
2013-07-15 09:02:00,66.0,50.4,24.25,South,180,21.0,22.0,57,0.00,,,0.00,meteohub,2013-07-15 15:02:00,
2013-07-15 09:07:00,66.0,50.4,24.25,South,180,21.0,22.0,57,0.00,,,0.00,meteohub,2013-07-15 15:07:00,
2013-07-15 09:12:00,66.6,50.9,24.25,South,180,19.0,22.0,57,0.00,,,0.00,meteohub,2013-07-15 15:12:00,
2013-07-15 09:17:00,67.5,49.8,24.25,South,180,19.0,21.0,53,0.00,,,0.00,meteohub,2013-07-15 15:17:00,
2013-07-15 09:22:00,67.5,50.2,24.25,South,180,17.0,21.0,54,0.00,,,0.00,meteohub,2013-07-15 15:22:00,
2013-07-15 09:27:00,67.1,49.5,24.25,South,180,17.0,20.0,53,0.00,,,0.00,meteohub,2013-07-15 15:27:00,
2013-07-15 09:32:00,67.5,50.2,24.24,South,180,17.0,20.0,54,0.00,,,0.00,meteohub,2013-07-15 15:32:00,
2013-07-15 09:42:00,67.8,50.0,24.25,South,180,16.0,20.0,53,0.00,,,0.00,meteohub,2013-07-15 15:42:00,
2013-07-15 09:47:00,68.5,50.7,24.24,SE,135,18.0,20.0,53,0.00,,,0.00,meteohub,2013-07-15 15:47:00,
2013-07-15 09:57:00,68.9,50.0,24.24,South,180,17.0,19.0,51,0.00,,,0.00,meteohub,2013-07-15 15:57:00,
2013-07-15 10:02:00,69.4,48.9,24.24,South,180,18.0,19.0,48,0.00,,,0.00,meteohub,2013-07-15 16:02:00,
2013-07-15 10:07:00,69.4,48.9,24.24,South,180,18.0,19.0,48,0.00,,,0.00,meteohub,2013-07-15 16:07:00,
2013-07-15 10:17:00,70.5,50.4,24.25,South,180,17.0,21.0,49,0.00,,,0.00,meteohub,2013-07-15 16:17:00,
2013-07-15 10:22:00,70.7,48.4,24.24,South,180,15.0,21.0,45,0.00,,,0.00,meteohub,2013-07-15 16:22:00,
2013-07-15 10:27:00,71.1,48.0,24.25,South,180,21.0,21.0,44,0.00,,,0.00,meteohub,2013-07-15 16:27:00,
2013-07-15 10:32:00,71.4,49.6,24.25,South,180,18.0,21.0,46,0.00,,,0.00,meteohub,2013-07-15 16:32:00,
2013-07-15 10:42:00,72.3,48.0,24.24,South,180,17.0,21.0,42,0.00,,,0.00,meteohub,2013-07-15 16:42:00,
2013-07-15 10:47:00,73.2,49.5,24.25,South,180,15.0,21.0,43,0.00,,,0.00,meteohub,2013-07-15 16:47:00,
2013-07-15 10:52:00,73.2,50.0,24.25,SE,135,12.0,21.0,44,0.00,,,0.00,meteohub,2013-07-15 16:52:00,
2013-07-15 11:02:00,73.0,49.8,24.24,South,180,17.0,19.0,44,0.00,,,0.00,meteohub,2013-07-15 17:02:00,
2013-07-15 11:07:00,73.0,49.8,24.24,South,180,17.0,19.0,44,0.00,,,0.00,meteohub,2013-07-15 17:07:00,
2013-07-15 11:17:00,74.5,41.9,24.23,South,180,23.0,23.0,31,0.00,,,0.00,meteohub,2013-07-15 17:17:00,
2013-07-15 11:22:00,75.2,42.4,24.24,South,180,21.0,24.0,31,0.00,,,0.00,meteohub,2013-07-15 17:22:00,
2013-07-15 11:27:00,75.7,45.3,24.23,South,180,20.0,26.0,34,0.00,,,0.00,meteohub,2013-07-15 17:27:00,
2013-07-15 11:37:00,76.3,44.2,24.23,South,180,17.0,26.0,32,0.00,,,0.00,meteohub,2013-07-15 17:37:00,
2013-07-15 11:42:00,76.1,43.3,24.23,South,180,25.0,26.0,31,0.00,,,0.00,meteohub,2013-07-15 17:42:00,
2013-07-15 11:47:00,77.0,44.1,24.23,South,180,21.0,25.0,31,0.00,,,0.00,meteohub,2013-07-15 17:47:00,
2013-07-15 11:52:00,77.0,42.3,24.23,South,180,21.0,25.0,29,0.00,,,0.00,meteohub,2013-07-15 17:52:00,
2013-07-15 11:57:00,78.6,37.8,24.23,SW,225,18.0,25.0,23,0.00,,,0.00,meteohub,2013-07-15 17:57:00,
2013-07-15 12:02:00,79.3,20.3,24.23,West,270,24.0,29.0,11,0.00,,,0.00,meteohub,2013-07-15 18:02:00,
2013-07-15 12:07:00,79.3,20.3,24.23,West,270,24.0,29.0,11,0.00,,,0.00,meteohub,2013-07-15 18:07:00,
2013-07-15 12:12:00,79.3,29.3,24.23,SW,225,17.0,29.0,16,0.00,,,0.00,meteohub,2013-07-15 18:12:00,
2013-07-15 12:17:00,80.2,25.0,24.23,South,180,22.0,24.0,13,0.00,,,0.00,meteohub,2013-07-15 18:17:00,
2013-07-15 12:22:00,79.5,24.4,24.23,SW,225,18.0,24.0,13,0.00,,,0.00,meteohub,2013-07-15 18:22:00,
2013-07-15 12:27:00,80.6,23.4,24.23,West,270,15.0,24.0,12,0.00,,,0.00,meteohub,2013-07-15 18:27:00,
2013-07-15 12:32:00,81.0,27.3,24.23,NNW,338,17.0,24.0,14,0.00,,,0.00,meteohub,2013-07-15 18:32:00,
2013-07-15 12:37:00,80.6,19.0,24.22,SW,225,26.0,26.0,10,0.00,,,0.00,meteohub,2013-07-15 18:37:00,
2013-07-15 12:42:00,80.8,23.4,24.22,SW,225,16.0,26.0,12,0.00,,,0.00,meteohub,2013-07-15 18:42:00,
2013-07-15 12:47:00,80.2,80.2,24.22,NW,315,23.0,26.0,0,0.00,,,0.00,meteohub,2013-07-15 18:47:00,
2013-07-15 12:52:00,80.8,19.2,24.22,West,270,22.0,26.0,10,0.00,,,0.00,meteohub,2013-07-15 18:52:00,
2013-07-15 12:57:00,81.1,81.1,24.22,West,270,21.0,23.0,0,0.00,,,0.00,meteohub,2013-07-15 18:57:00,
2013-07-15 13:02:00,80.4,80.4,24.22,West,270,21.0,26.0,0,0.00,,,0.00,meteohub,2013-07-15 19:02:00,
2013-07-15 13:07:00,80.4,80.4,24.22,West,270,21.0,26.0,0,0.00,,,0.00,meteohub,2013-07-15 19:07:00,
2013-07-15 13:12:00,80.8,80.8,24.22,West,270,25.0,26.0,0,0.00,,,0.00,meteohub,2013-07-15 19:12:00,
2013-07-15 13:17:00,81.0,19.2,24.22,SW,225,27.0,27.0,10,0.00,,,0.00,meteohub,2013-07-15 19:17:00,
2013-07-15 13:22:00,80.8,80.8,24.22,SW,225,28.0,28.0,0,0.00,,,0.00,meteohub,2013-07-15 19:22:00,
2013-07-15 13:27:00,81.7,81.7,24.22,SW,225,25.0,30.0,0,0.00,,,0.00,meteohub,2013-07-15 19:27:00,
2013-07-15 13:37:00,81.1,81.1,24.21,NW,315,27.0,30.0,0,0.00,,,0.00,meteohub,2013-07-15 19:37:00,
2013-07-15 13:47:00,80.8,80.8,24.22,NW,315,36.0,36.0,0,0.00,,,0.00,meteohub,2013-07-15 19:47:00,
2013-07-15 13:52:00,81.1,81.1,24.22,West,270,32.0,39.0,0,0.00,,,0.00,meteohub,2013-07-15 19:52:00,
2013-07-15 13:57:00,81.3,81.3,24.22,West,270,25.0,39.0,0,0.00,,,0.00,meteohub,2013-07-15 19:57:00,
2013-07-15 14:02:00,81.0,81.0,24.21,NW,315,23.0,39.0,0,0.00,,,0.00,meteohub,2013-07-15 20:02:00,
2013-07-15 14:07:00,81.0,81.0,24.21,NW,315,23.0,34.0,0,0.00,,,0.00,meteohub,2013-07-15 20:07:00,
2013-07-15 14:12:00,81.1,81.1,24.21,NW,315,27.0,30.0,0,0.00,,,0.00,meteohub,2013-07-15 20:12:00,
2013-07-15 14:17:00,81.5,81.5,24.20,NW,315,34.0,34.0,0,0.00,,,0.00,meteohub,2013-07-15 20:17:00,
2013-07-15 14:22:00,81.1,81.1,24.20,West,270,34.0,38.0,0,0.00,,,0.00,meteohub,2013-07-15 20:22:00,
2013-07-15 14:32:00,81.7,81.7,24.21,NW,315,27.0,39.0,0,0.00,,,0.00,meteohub,2013-07-15 20:32:00,
2013-07-15 14:37:00,81.3,81.3,24.20,WNW,293,31.0,39.0,0,0.00,,,0.00,meteohub,2013-07-15 20:37:00,
2013-07-15 14:42:00,81.3,81.3,24.19,West,270,34.0,39.0,0,0.00,,,0.00,meteohub,2013-07-15 20:42:00,
2013-07-15 14:52:00,82.4,82.4,24.20,NW,315,30.0,43.0,0,0.00,,,0.00,meteohub,2013-07-15 20:52:00,
2013-07-15 14:57:00,82.8,82.8,24.20,West,270,27.0,43.0,0,0.00,,,0.00,meteohub,2013-07-15 20:57:00,
2013-07-15 15:02:00,82.9,82.9,24.20,NW,315,30.0,43.0,0,0.00,,,0.00,meteohub,2013-07-15 21:02:00,
2013-07-15 15:07:00,82.9,82.9,24.20,NW,315,30.0,30.0,0,0.00,,,0.00,meteohub,2013-07-15 21:07:00,
2013-07-15 15:12:00,82.9,82.9,24.20,West,270,29.0,30.0,0,0.00,,,0.00,meteohub,2013-07-15 21:12:00,
2013-07-15 15:17:00,82.9,82.9,24.20,NW,315,27.0,34.0,0,0.00,,,0.00,meteohub,2013-07-15 21:17:00,
2013-07-15 15:22:00,83.1,83.1,24.19,NW,315,26.0,34.0,0,0.00,,,0.00,meteohub,2013-07-15 21:22:00,
2013-07-15 15:32:00,84.0,84.0,24.20,NW,315,18.0,30.0,0,0.00,,,0.00,meteohub,2013-07-15 21:32:00,
2013-07-15 15:37:00,83.3,83.3,24.20,NW,315,18.0,26.0,0,0.00,,,0.00,meteohub,2013-07-15 21:37:00,
2013-07-15 15:42:00,84.7,84.7,24.20,NW,315,19.0,27.0,0,0.00,,,0.00,meteohub,2013-07-15 21:42:00,
2013-07-15 15:47:00,84.7,84.7,24.20,NW,315,23.0,27.0,0,0.00,,,0.00,meteohub,2013-07-15 21:47:00,
2013-07-15 15:52:00,84.7,84.7,24.20,NW,315,20.0,28.0,0,0.00,,,0.00,meteohub,2013-07-15 21:52:00,
2013-07-15 15:57:00,82.9,82.9,24.19,NW,315,27.0,35.0,0,0.00,,,0.00,meteohub,2013-07-15 21:57:00,
2013-07-15 16:02:00,83.5,83.5,24.19,NW,315,17.0,35.0,0,0.00,,,0.00,meteohub,2013-07-15 22:02:00,
2013-07-15 16:07:00,83.5,83.5,24.20,NW,315,17.0,35.0,0,0.00,,,0.00,meteohub,2013-07-15 22:07:00,
2013-07-15 16:17:00,83.7,83.7,24.20,NW,315,19.0,33.0,0,0.00,,,0.00,meteohub,2013-07-15 22:17:00,
2013-07-15 16:22:00,84.2,84.2,24.20,NW,315,15.0,33.0,0,0.00,,,0.00,meteohub,2013-07-15 22:22:00,
2013-07-15 16:27:00,84.9,84.9,24.20,NW,315,17.0,33.0,0,0.00,,,0.00,meteohub,2013-07-15 22:27:00,
2013-07-15 16:32:00,83.1,83.1,24.19,West,270,14.0,30.0,0,0.00,,,0.00,meteohub,2013-07-15 22:32:00,
2013-07-15 16:37:00,84.2,84.2,24.19,NW,315,19.0,20.0,0,0.00,,,0.00,meteohub,2013-07-15 22:37:00,
2013-07-15 16:42:00,84.0,84.0,24.19,NW,315,25.0,25.0,0,0.00,,,0.00,meteohub,2013-07-15 22:42:00,
2013-07-15 16:47:00,82.2,82.2,24.19,NW,315,25.0,30.0,0,0.00,,,0.00,meteohub,2013-07-15 22:47:00,
2013-07-15 16:52:00,82.2,82.2,24.19,NNW,338,20.0,30.0,0,0.00,,,0.00,meteohub,2013-07-15 22:52:00,
2013-07-15 17:02:00,84.6,84.6,24.19,North,0,21.0,30.0,0,0.00,,,0.00,meteohub,2013-07-15 23:02:00,
2013-07-15 17:07:00,84.6,84.6,24.20,North,0,21.0,27.0,0,0.00,,,0.00,meteohub,2013-07-15 23:07:00,
2013-07-15 17:12:00,82.6,82.6,24.19,North,0,22.0,27.0,0,0.00,,,0.00,meteohub,2013-07-15 23:12:00,
2013-07-15 17:17:00,82.4,82.4,24.19,NW,315,30.0,31.0,0,0.00,,,0.00,meteohub,2013-07-15 23:17:00,
2013-07-15 17:22:00,83.8,83.8,24.19,North,0,23.0,31.0,0,0.00,,,0.00,meteohub,2013-07-15 23:22:00,
2013-07-15 17:27:00,83.7,83.7,24.19,NW,315,27.0,31.0,0,0.00,,,0.00,meteohub,2013-07-15 23:27:00,
2013-07-15 17:32:00,82.0,82.0,24.19,North,0,23.0,31.0,0,0.00,,,0.00,meteohub,2013-07-15 23:32:00,
2013-07-15 17:37:00,81.7,81.7,24.19,North,0,21.0,30.0,0,0.00,,,0.00,meteohub,2013-07-15 23:37:00,
2013-07-15 17:47:00,83.3,83.3,24.19,NW,315,29.0,34.0,0,0.00,,,0.00,meteohub,2013-07-15 23:47:00,
2013-07-15 17:52:00,82.8,82.8,24.19,WNW,293,34.0,34.0,0,0.00,,,0.00,meteohub,2013-07-15 23:52:00,
2013-07-15 17:57:00,82.6,82.6,24.19,North,0,29.0,34.0,0,0.00,,,0.00,meteohub,2013-07-15 23:57:00,
2013-07-15 18:02:00,82.6,82.6,24.19,North,0,34.0,34.0,0,0.00,,,0.00,meteohub,2013-07-16 00:02:00,
2013-07-15 18:07:00,82.6,82.6,24.18,North,0,34.0,34.0,0,0.00,,,0.00,meteohub,2013-07-16 00:07:00,
2013-07-15 18:12:00,83.1,83.1,24.18,NW,315,39.0,39.0,0,0.00,,,0.00,meteohub,2013-07-16 00:12:00,
2013-07-15 18:22:00,80.2,80.2,24.18,North,0,36.0,42.0,0,0.00,,,0.00,meteohub,2013-07-16 00:22:00,
2013-07-15 18:27:00,81.7,81.7,24.18,WNW,293,38.0,42.0,0,0.00,,,0.00,meteohub,2013-07-16 00:27:00,
2013-07-15 18:32:00,81.3,81.3,24.17,NW,315,35.0,43.0,0,0.00,,,0.00,meteohub,2013-07-16 00:32:00,
2013-07-15 18:37:00,81.0,81.0,24.17,NW,315,43.0,44.0,0,0.00,,,0.00,meteohub,2013-07-16 00:37:00,
2013-07-15 18:47:00,76.3,39.9,24.17,North,0,49.0,50.0,27,0.00,,,0.00,meteohub,2013-07-16 00:47:00,
2013-07-15 18:52:00,74.7,42.1,24.19,North,0,40.0,50.0,31,0.00,,,0.00,meteohub,2013-07-16 00:52:00,
2013-07-15 18:57:00,74.1,42.4,24.19,North,0,42.0,49.0,32,0.00,,,0.00,meteohub,2013-07-16 00:57:00,
2013-07-15 19:02:00,73.9,43.0,24.19,North,0,43.0,49.0,33,0.00,,,0.00,meteohub,2013-07-16 01:02:00,
2013-07-15 19:07:00,73.9,43.0,24.21,North,0,43.0,43.0,33,0.00,,,0.00,meteohub,2013-07-16 01:07:00,
2013-07-15 19:12:00,71.6,49.1,24.20,North,0,40.0,43.0,45,0.00,,,0.00,meteohub,2013-07-16 01:12:00,
2013-07-15 19:17:00,70.7,48.9,24.21,North,0,43.0,45.0,46,0.00,,,0.00,meteohub,2013-07-16 01:17:00,
2013-07-15 19:22:00,70.2,50.2,24.22,North,0,44.0,48.0,49,0.00,,,0.00,meteohub,2013-07-16 01:22:00,
2013-07-15 19:32:00,68.5,50.7,24.23,North,0,42.0,49.0,53,0.01,,,0.01,meteohub,2013-07-16 01:32:00,
2013-07-15 19:37:00,68.2,50.9,24.23,North,0,36.0,49.0,54,0.01,,,0.01,meteohub,2013-07-16 01:37:00,
2013-07-15 19:42:00,67.5,51.3,24.23,North,0,35.0,44.0,56,0.01,,,0.01,meteohub,2013-07-16 01:42:00,
2013-07-15 19:52:00,66.6,50.4,24.23,North,0,44.0,44.0,56,0.01,,,0.01,meteohub,2013-07-16 01:52:00,
2013-07-15 19:57:00,66.4,51.1,24.25,North,0,40.0,44.0,58,0.01,,,0.01,meteohub,2013-07-16 01:57:00,
2013-07-15 20:07:00,66.2,50.5,24.25,North,0,39.0,44.0,57,0.01,,,0.01,meteohub,2013-07-16 02:07:00,
2013-07-15 20:12:00,64.6,51.3,24.25,North,0,38.0,46.0,62,0.01,,,0.01,meteohub,2013-07-16 02:12:00,
2013-07-15 20:17:00,64.4,51.6,24.26,North,0,39.0,46.0,63,0.01,,,0.01,meteohub,2013-07-16 02:17:00,
2013-07-15 20:22:00,64.0,51.3,24.26,North,0,39.0,46.0,63,0.01,,,0.01,meteohub,2013-07-16 02:22:00,
2013-07-15 20:27:00,63.7,51.3,24.27,North,0,32.0,39.0,64,0.00,,,0.01,meteohub,2013-07-16 02:27:00,
2013-07-15 20:32:00,63.1,51.3,24.28,North,0,28.0,39.0,65,0.00,,,0.01,meteohub,2013-07-16 02:32:00,
2013-07-15 20:37:00,62.8,50.9,24.28,North,0,29.0,39.0,65,0.00,,,0.01,meteohub,2013-07-16 02:37:00,
2013-07-15 20:42:00,62.4,50.9,24.28,NNE,23,31.0,33.0,66,0.00,,,0.01,meteohub,2013-07-16 02:42:00,
2013-07-15 20:47:00,61.7,51.1,24.29,North,0,26.0,33.0,68,0.00,,,0.01,meteohub,2013-07-16 02:47:00,
2013-07-15 20:57:00,58.5,50.9,24.29,North,0,30.0,34.0,76,0.00,,,0.01,meteohub,2013-07-16 02:57:00,
2013-07-15 21:02:00,58.1,50.5,24.29,North,0,36.0,36.0,76,0.00,,,0.01,meteohub,2013-07-16 03:02:00,
2013-07-15 21:12:00,56.5,49.6,24.29,North,0,34.0,36.0,78,0.00,,,0.01,meteohub,2013-07-16 03:12:00,
2013-07-15 21:22:00,55.4,48.9,24.30,North,0,32.0,36.0,79,0.00,,,0.01,meteohub,2013-07-16 03:22:00,
2013-07-15 21:27:00,55.2,49.1,24.30,North,0,34.0,37.0,80,0.00,,,0.01,meteohub,2013-07-16 03:27:00,
2013-07-15 21:32:00,54.5,49.1,24.30,North,0,27.0,37.0,82,0.00,,,0.01,meteohub,2013-07-16 03:32:00,
2013-07-15 21:37:00,54.0,48.9,24.30,NW,315,27.0,37.0,83,0.00,,,0.01,meteohub,2013-07-16 03:37:00,
2013-07-15 21:47:00,53.4,48.4,24.31,North,0,30.0,33.0,83,0.00,,,0.01,meteohub,2013-07-16 03:47:00,
2013-07-15 21:52:00,53.4,48.4,24.32,WNW,293,28.0,31.0,83,0.00,,,0.01,meteohub,2013-07-16 03:52:00,
2013-07-15 21:57:00,53.4,48.4,24.32,North,0,29.0,31.0,83,0.00,,,0.01,meteohub,2013-07-16 03:57:00,
2013-07-15 22:02:00,53.2,48.2,24.32,North,0,28.0,30.0,83,0.00,,,0.01,meteohub,2013-07-16 04:02:00,
2013-07-15 22:07:00,53.2,48.2,24.32,North,0,28.0,30.0,83,0.00,,,0.01,meteohub,2013-07-16 04:07:00,
2013-07-15 22:12:00,53.4,48.4,24.32,North,0,30.0,33.0,83,0.00,,,0.01,meteohub,2013-07-16 04:12:00,
2013-07-15 22:17:00,53.6,48.2,24.32,North,0,30.0,33.0,82,0.00,,,0.01,meteohub,2013-07-16 04:17:00,
2013-07-15 22:27:00,53.4,48.0,24.33,North,0,32.0,34.0,82,0.00,,,0.01,meteohub,2013-07-16 04:27:00,
2013-07-15 22:32:00,53.4,48.0,24.34,North,0,28.0,34.0,82,0.00,,,0.01,meteohub,2013-07-16 04:32:00,
2013-07-15 22:37:00,53.2,48.2,24.34,North,0,30.0,34.0,83,0.00,,,0.01,meteohub,2013-07-16 04:37:00,
2013-07-15 22:42:00,53.1,48.0,24.34,North,0,27.0,33.0,83,0.00,,,0.01,meteohub,2013-07-16 04:42:00,
2013-07-15 22:47:00,52.7,48.0,24.34,North,0,30.0,30.0,84,0.00,,,0.01,meteohub,2013-07-16 04:47:00,
2013-07-15 22:52:00,52.3,48.0,24.34,North,0,31.0,32.0,85,0.00,,,0.01,meteohub,2013-07-16 04:52:00,
2013-07-15 22:57:00,52.2,48.0,24.34,North,0,28.0,34.0,86,0.00,,,0.01,meteohub,2013-07-16 04:57:00,
2013-07-15 23:02:00,52.0,47.8,24.35,North,0,28.0,34.0,86,0.00,,,0.01,meteohub,2013-07-16 05:02:00,
2013-07-15 23:07:00,52.0,47.8,24.35,North,0,28.0,34.0,86,0.00,,,0.01,meteohub,2013-07-16 05:07:00,
2013-07-15 23:12:00,51.4,47.7,24.36,North,0,26.0,32.0,87,0.00,,,0.01,meteohub,2013-07-16 05:12:00,
2013-07-15 23:17:00,51.3,47.5,24.36,North,0,29.0,32.0,87,0.00,,,0.01,meteohub,2013-07-16 05:17:00,
2013-07-15 23:22:00,50.9,47.5,24.35,North,0,28.0,32.0,88,0.00,,,0.01,meteohub,2013-07-16 05:22:00,
2013-07-15 23:27:00,50.7,47.3,24.36,North,0,24.0,29.0,88,0.00,,,0.01,meteohub,2013-07-16 05:27:00,
2013-07-15 23:32:00,50.5,47.1,24.36,North,0,25.0,29.0,88,0.00,,,0.01,meteohub,2013-07-16 05:32:00,
2013-07-15 23:37:00,50.4,47.3,24.36,WNW,293,23.0,28.0,89,0.00,,,0.01,meteohub,2013-07-16 05:37:00,
2013-07-15 23:42:00,50.2,47.1,24.36,North,0,22.0,26.0,89,0.00,,,0.01,meteohub,2013-07-16 05:42:00,
2013-07-15 23:47:00,50.0,47.1,24.37,WNW,293,21.0,26.0,90,0.00,,,0.01,meteohub,2013-07-16 05:47:00,
2013-07-15 23:52:00,50.0,47.1,24.38,North,0,16.0,24.0,90,0.00,,,0.01,meteohub,2013-07-16 05:52:00,
2013-07-15 23:57:00,50.0,47.1,24.38,North,0,17.0,24.0,90,0.00,,,0.01,meteohub,2013-07-16 05:57:00,